Time;durP1;ratioP1;P1;durP2;ratioP2;P2;SDS_P1;SDS_P2;PMS_P1;PMS_P2;Temp;Humidity;BMP_temperature;BMP_pressure;BME280_temperature;BME280_humidity;BME280_pressure;Samples;Min_cycle;Max_cycle;Signal;HPM_P1;HPM_P2
2021/08/05 02:47:49;;;;;;;;;;;15.00;99.90;;;;;;5;36030792;41310636;-84
2021/08/05 02:51:10;;;;;;;;;;;15.10;99.90;;;;;;5;36016682;41267504;-86
2021/08/05 02:54:25;;;;;;;;;;;15.10;99.90;;;;;;5;36016463;41270311;-84
2021/08/05 02:57:42;;;;;;;;;;;15.10;99.90;;;;;;5;36014447;41267001;-85
2021/08/05 03:01:02;;;;;;;;;;;15.10;99.90;;;;;;5;36013855;41268011;-85
2021/08/05 03:04:21;;;;;;;;;;;15.10;99.90;;;;;;5;36015005;41266832;-84
2021/08/05 03:07:35;;;;;;;;;;;15.10;99.90;;;;;;5;36014191;41269811;-86
2021/08/05 03:10:52;;;;;;;;;;;15.10;99.90;;;;;;5;36013910;41266856;-85
2021/08/05 03:14:12;;;;;;;;;;;15.10;99.90;;;;;;5;36015471;41266931;-85
2021/08/05 03:17:33;;;;;;;;;;;15.10;99.90;;;;;;5;36015525;42017674;-86
2021/08/05 03:20:47;;;;;;;;;;;15.10;99.90;;;;;;5;36014251;41266978;-85
2021/08/05 03:24:04;;;;;;;;;;;15.10;99.90;;;;;;5;36015204;41266248;-86
2021/08/05 03:27:24;;;;;;;;;;;15.10;99.90;;;;;;5;36014175;41266533;-84
2021/08/05 03:30:43;;;;;;;;;;;15.00;99.90;;;;;;5;36015884;41267576;-85
2021/08/05 03:33:57;;;;;;;;;;;15.10;99.90;;;;;;5;36016195;41268580;-84
2021/08/05 03:37:14;;;;;;;;;;;15.10;99.90;;;;;;5;36016087;41266814;-86
2021/08/05 03:40:34;;;;;;;;;;;15.20;99.90;;;;;;5;36015051;41266820;-83
2021/08/05 03:43:53;;;;;;;;;;;15.10;99.90;;;;;;5;36014578;41271262;-84
2021/08/05 03:47:07;;;;;;;;;;;15.10;99.90;;;;;;5;36014469;41267255;-83
2021/08/05 03:50:26;;;;;;;;;;;15.10;99.90;;;;;;5;36014726;42017570;-83
2021/08/05 03:53:46;;;;;;;;;;;15.10;99.90;;;;;;5;36014442;41267013;-84
2021/08/05 03:57:05;;;;;;;;;;;15.10;99.90;;;;;;5;36014111;41266892;-84
2021/08/05 04:00:19;;;;;;;;;;;15.00;99.90;;;;;;5;36015638;41268038;-83
2021/08/05 04:03:36;;;;;;;;;;;15.00;99.90;;;;;;5;36017001;41274363;-84
2021/08/05 04:06:56;;;;;;;;;;;15.00;99.90;;;;;;5;36015547;41266429;-84
2021/08/05 04:10:15;;;;;;;;;;;15.10;99.90;;;;;;5;36014695;41267186;-85
2021/08/05 04:13:29;;;;;;;;;;;15.10;99.90;;;;;;5;36014460;41266920;-84
2021/08/05 04:16:47;;;;;;;;;;;15.10;99.90;;;;;;5;36013289;41267065;-85
2021/08/05 04:20:06;;;;;;;;;;;15.10;99.90;;;;;;5;36013925;41268485;-85
2021/08/05 04:23:27;;;;;;;;;;;15.10;99.90;;;;;;5;36013843;42016503;-84
2021/08/05 04:26:41;;;;;;;;;;;15.10;99.90;;;;;;5;36015839;41267273;-86
2021/08/05 04:29:59;;;;;;;;;;;15.10;99.90;;;;;;5;36015032;41266016;-85
2021/08/05 04:33:18;;;;;;;;;;;15.10;99.90;;;;;;5;36014388;41267205;-84
2021/08/05 04:36:38;;;;;;;;;;;15.10;99.90;;;;;;5;36015048;41266424;-85
2021/08/05 04:39:52;;;;;;;;;;;15.10;99.90;;;;;;5;36014727;41266096;-85
2021/08/05 04:43:09;;;;;;;;;;;15.10;99.90;;;;;;5;36013810;41266060;-84
2021/08/05 04:46:29;;;;;;;;;;;15.20;99.90;;;;;;5;36015238;41265993;-85
2021/08/05 04:49:48;;;;;;;;;;;15.20;99.90;;;;;;5;36014735;41266574;-83
2021/08/05 04:53:03;;;;;;;;;;;15.20;99.90;;;;;;5;36014105;41268006;-83
2021/08/05 04:56:21;;;;;;;;;;;15.30;99.90;;;;;;5;36014668;42017093;-83
2021/08/05 04:59:41;;;;;;;;;;;15.30;99.90;;;;;;5;36014478;41266252;-82
2021/08/05 05:03:01;;;;;;;;;;;15.30;99.90;;;;;;5;36013822;41266943;-85
2021/08/05 05:06:15;;;;;;;;;;;15.30;99.90;;;;;;5;36014609;41270031;-83
2021/08/05 05:09:32;;;;;;;;;;;15.30;99.90;;;;;;5;36013892;41266407;-83
2021/08/05 05:12:52;;;;;;;;;;;15.30;99.90;;;;;;5;36014816;41266646;-83
2021/08/05 05:16:11;;;;;;;;;;;15.40;99.90;;;;;;5;36014303;41266497;-83
2021/08/05 05:19:25;;;;;;;;;;;15.50;99.90;;;;;;5;36015851;41266040;-85
2021/08/05 05:22:42;;;;;;;;;;;15.60;99.90;;;;;;5;36014401;41265981;-84
2021/08/05 05:26:02;;;;;;;;;;;15.60;99.90;;;;;;5;36013654;41266643;-85
2021/08/05 05:29:23;;;;;;;;;;;15.70;99.90;;;;;;5;36013699;42017475;-83
2021/08/05 05:32:37;;;;;;;;;;;15.70;99.90;;;;;;5;36014031;41266063;-84
2021/08/05 05:35:55;;;;;;;;;;;15.80;99.90;;;;;;5;36014049;41266994;-84
2021/08/05 05:39:14;;;;;;;;;;;15.80;99.90;;;;;;5;36013154;41267466;-85
2021/08/05 05:42:34;;;;;;;;;;;15.90;99.90;;;;;;5;36014780;41265561;-85
2021/08/05 05:45:48;;;;;;;;;;;16.00;99.90;;;;;;5;36015369;41265891;-83
2021/08/05 05:49:05;;;;;;;;;;;16.00;99.90;;;;;;5;36014582;41267205;-84
2021/08/05 05:52:25;;;;;;;;;;;16.00;99.90;;;;;;5;36013286;41265820;-82
2021/08/05 05:55:44;;;;;;;;;;;16.00;99.90;;;;;;5;36013838;41265979;-83
2021/08/05 05:58:58;;;;;;;;;;;16.10;99.90;;;;;;5;36013820;41267297;-83
2021/08/05 06:02:17;;;;;;;;;;;16.10;99.90;;;;;;5;36014179;42016294;-83
2021/08/05 06:05:36;;;;;;;;;;;16.10;99.90;;;;;;5;36014803;41265596;-85
2021/08/05 06:08:56;;;;;;;;;;;16.30;99.90;;;;;;5;36013741;41266580;-85
2021/08/05 06:12:11;;;;;;;;;;;16.30;99.90;;;;;;5;36014583;41265843;-86
2021/08/05 06:15:28;;;;;;;;;;;16.40;99.90;;;;;;5;36013327;41267513;-84
2021/08/05 06:18:47;;;;;;;;;;;16.40;99.90;;;;;;5;36015464;41267249;-83
2021/08/05 06:22:10;;;;;;;;;;;16.50;99.90;;;;;;5;36014064;41266124;-84
2021/08/05 06:25:24;;;;;;;;;;;16.50;99.90;;;;;;5;36015718;41266405;-82
2021/08/05 06:28:41;;;;;;;;;;;16.60;99.90;;;;;;5;36014483;41267568;-85
2021/08/05 06:32:01;;;;;;;;;;;16.70;99.90;;;;;;5;36014442;41266482;-84
2021/08/05 06:35:22;;;;;;;;;;;16.80;99.90;;;;;;5;36013976;42017646;-85
2021/08/05 06:42:42;;;;;;;;;;;17.20;99.90;;;;;;5;36014788;41268979;-83
2021/08/05 06:49:27;;;;;;;;;;;17.40;99.90;;;;;;5;36014275;41279792;-84
2021/08/05 06:52:41;;;;;;;;;;;17.60;99.90;;;;;;5;36015149;41267954;-84
2021/08/05 06:55:58;;;;;;;;;;;17.80;99.90;;;;;;5;36016434;41267362;-83
2021/08/05 06:59:18;;;;;;;;;;;18.00;99.90;;;;;;5;36014084;41265679;-85
2021/08/05 07:02:38;;;;;;;;;;;18.30;99.90;;;;;;5;36014564;41265005;-84
2021/08/05 07:05:52;;;;;;;;;;;18.30;99.90;;;;;;5;36013177;41265943;-86
2021/08/05 07:09:11;;;;;;;;;;;18.30;99.90;;;;;;5;36012840;42016817;-85
2021/08/05 07:12:31;;;;;;;;;;;18.30;99.90;;;;;;5;36013413;41266654;-85
2021/08/05 07:15:50;;;;;;;;;;;18.40;99.90;;;;;;5;36012700;41265685;-84
2021/08/05 07:19:04;;;;;;;;;;;18.50;99.90;;;;;;5;36014043;41268088;-84
2021/08/05 07:22:22;;;;;;;;;;;18.40;99.90;;;;;;5;36013471;41265478;-84
2021/08/05 07:25:41;;;;;;;;;;;18.40;99.90;;;;;;5;36012560;41266503;-82
2021/08/05 07:29:00;;;;;;;;;;;18.30;99.90;;;;;;5;36014152;41266259;-84
2021/08/05 07:32:15;;;;;;;;;;;18.40;99.90;;;;;;5;36014016;41264723;-86
2021/08/05 07:35:32;;;;;;;;;;;18.40;99.90;;;;;;5;36013454;41266529;-85
2021/08/05 07:38:54;;;;;;;;;;;18.50;99.90;;;;;;5;36014403;41265532;-85
2021/08/05 07:42:16;;;;;;;;;;;18.80;99.90;;;;;;5;36014550;42015756;-86
2021/08/05 07:45:32;;;;;;;;;;;19.00;99.90;;;;;;5;36013999;41265468;-87
2021/08/05 07:48:49;;;;;;;;;;;19.20;99.90;;;;;;5;36014615;41266220;-87
2021/08/05 07:52:10;;;;;;;;;;;19.30;99.90;;;;;;5;36013071;41267263;-85
2021/08/05 07:55:30;;;;;;;;;;;19.40;99.90;;;;;;5;36014208;41265225;-85
2021/08/05 07:58:44;;;;;;;;;;;19.20;99.90;;;;;;5;36014068;41269682;-87
2021/08/05 08:02:01;;;;;;;;;;;19.30;99.90;;;;;;5;36013587;41267447;-86
2021/08/05 08:05:20;;;;;;;;;;;19.20;99.90;;;;;;5;36012515;41266168;-86
2021/08/05 08:08:40;;;;;;;;;;;19.20;99.90;;;;;;5;36013811;41266464;-88
2021/08/05 08:11:54;;;;;;;;;;;19.20;99.90;;;;;;5;36012827;41265702;-88
2021/08/05 08:15:50;;;;;;;;;;;19.20;99.90;;;;;;5;36015072;42015423;-87
2021/08/05 08:19:09;;;;;;;;;;;19.20;99.90;;;;;;5;36012698;41266342;-86
2021/08/05 08:22:29;;;;;;;;;;;19.20;99.90;;;;;;5;36014736;41266023;-85
2021/08/05 08:25:43;;;;;;;;;;;19.50;99.90;;;;;;5;36014790;41265040;-86
2021/08/05 08:29:00;;;;;;;;;;;19.60;99.90;;;;;;5;36013981;41264672;-88
2021/08/05 08:32:43;;;;;;;;;;;20.30;99.90;;;;;;5;36012686;41265433;-87
2021/08/05 08:36:03;;;;;;;;;;;21.60;97.30;;;;;;5;36014458;41265657;-86
2021/08/05 08:39:18;;;;;;;;;;;22.90;94.80;;;;;;5;36013420;41266599;-86
2021/08/05 08:42:35;;;;;;;;;;;23.40;88.70;;;;;;5;36013684;41266210;-86
2021/08/05 08:45:55;;;;;;;;;;;23.20;87.80;;;;;;5;36012559;41266878;-89
2021/08/05 08:49:22;;;;;;;;;;;22.90;90.60;;;;;;5;36013487;42015272;-88
2021/08/05 08:52:37;;;;;;;;;;;22.60;91.00;;;;;;5;36013563;41266356;-86
2021/08/05 08:55:55;;;;;;;;;;;22.70;87.70;;;;;;5;36013429;41267601;-87
2021/08/05 08:59:17;;;;;;;;;;;22.60;87.80;;;;;;5;36012753;41264955;-88
2021/08/05 09:02:37;;;;;;;;;;;22.70;87.10;;;;;;5;36013410;41266057;-87
2021/08/05 09:05:51;;;;;;;;;;;22.90;88.00;;;;;;5;36014336;41265759;-88
2021/08/05 09:09:08;;;;;;;;;;;23.10;83.20;;;;;;5;36015036;41265759;-88
2021/08/05 09:12:28;;;;;;;;;;;23.40;81.60;;;;;;5;36013712;41266219;-87
2021/08/05 09:15:47;;;;;;;;;;;23.60;80.50;;;;;;5;36013131;41266332;-87
2021/08/05 09:19:16;;;;;;;;;;;24.00;82.10;;;;;;5;36013970;41266034;-88
2021/08/05 09:22:39;;;;;;;;;;;25.70;79.40;;;;;;5;36013914;42016135;-88
2021/08/05 09:25:58;;;;;;;;;;;29.40;70.10;;;;;;5;36012837;41266509;-87
2021/08/05 09:29:22;;;;;;;;;;;32.90;60.60;;;;;;5;36014810;41266064;-88
2021/08/05 09:32:36;;;;;;;;;;;35.00;54.40;;;;;;5;36014947;41265148;-89
2021/08/05 09:35:53;;;;;;;;;;;35.00;47.80;;;;;;5;36014684;41265848;-91
2021/08/05 09:39:16;;;;;;;;;;;33.30;50.00;;;;;;5;36013827;41265706;-88
2021/08/05 09:42:35;;;;;;;;;;;31.80;51.90;;;;;;5;36014411;41265354;-91
2021/08/05 09:45:49;;;;;;;;;;;31.10;53.80;;;;;;5;36013147;41266726;-89
2021/08/05 09:49:15;;;;;;;;;;;30.90;54.00;;;;;;5;36013425;41266215;-89
2021/08/05 09:52:35;;;;;;;;;;;30.40;53.50;;;;;;5;36013703;41266910;-89
2021/08/05 09:56:12;;;;;;;;;;;29.90;53.30;;;;;;5;36013526;42017571;-88
2021/08/05 10:00:01;;;;;;;;;;;29.10;56.10;;;;;;5;36013861;41265699;-89
2021/08/05 10:03:28;;;;;;;;;;;28.80;56.60;;;;;;5;36013455;41267115;-89
2021/08/05 10:06:55;;;;;;;;;;;30.30;59.00;;;;;;5;36014392;41268450;-89
2021/08/05 10:10:16;;;;;;;;;;;34.60;49.00;;;;;;5;36013770;41267015;-90
2021/08/05 10:13:31;;;;;;;;;;;36.80;46.30;;;;;;5;36014559;41265940;-90
2021/08/05 10:16:49;;;;;;;;;;;35.20;45.50;;;;;;5;36015061;41267352;-89
2021/08/05 10:20:12;;;;;;;;;;;33.00;46.70;;;;;;5;36013589;41267010;-88
2021/08/05 10:23:33;;;;;;;;;;;32.10;50.30;;;;;;5;36012751;41267500;-88
2021/08/05 10:26:47;;;;;;;;;;;30.90;52.10;;;;;;5;36013401;41267953;-89
2021/08/05 10:30:08;;;;;;;;;;;29.30;54.40;;;;;;5;36014139;42016007;-89
2021/08/05 10:33:30;;;;;;;;;;;28.60;52.90;;;;;;5;36013303;41266616;-92
2021/08/05 10:36:50;;;;;;;;;;;27.90;55.20;;;;;;5;36013466;41265785;-89
2021/08/05 10:40:05;;;;;;;;;;;28.00;55.10;;;;;;5;36013866;41266557;-90
2021/08/05 10:43:22;;;;;;;;;;;27.60;58.50;;;;;;5;36013716;41266921;-91
2021/08/05 10:46:42;;;;;;;;;;;26.90;58.60;;;;;;5;36013580;41265826;-86
2021/08/05 10:50:03;;;;;;;;;;;26.00;63.10;;;;;;5;36014017;41266320;-86
2021/08/05 10:53:36;;;;;;;;;;;25.20;63.80;;;;;;5;36013057;41265678;-86
2021/08/05 10:57:12;;;;;;;;;;;24.70;67.40;;;;;;5;36013260;41267371;-86
2021/08/05 11:00:55;;;;;;;;;;;24.80;69.20;;;;;;5;36013518;41267418;-87
2021/08/05 11:04:34;;;;;;;;;;;28.30;60.90;;;;;;5;36013936;42016180;-86
2021/08/05 11:07:49;;;;;;;;;;;30.10;56.50;;;;;;5;36013703;41265516;-87
2021/08/05 11:11:25;;;;;;;;;;;29.80;55.70;;;;;;5;36014454;41265875;-89
2021/08/05 11:14:45;;;;;;;;;;;30.00;55.00;;;;;;5;36013628;41267039;-87
2021/08/05 11:18:10;;;;;;;;;;;31.90;53.40;;;;;;5;36014285;41266330;-87
2021/08/05 11:21:25;;;;;;;;;;;31.20;52.10;;;;;;5;36015123;41266801;-89
2021/08/05 11:24:43;;;;;;;;;;;29.60;53.40;;;;;;5;36015785;41267181;-88
2021/08/05 11:28:18;;;;;;;;;;;28.10;57.50;;;;;;5;36012848;41267381;-88
2021/08/05 11:31:38;;;;;;;;;;;26.80;59.80;;;;;;5;36014645;41265895;-90
2021/08/05 11:35:00;;;;;;;;;;;26.10;61.80;;;;;;5;36014658;41266150;-88
2021/08/05 11:38:18;;;;;;;;;;;25.60;62.30;;;;;;5;36013837;42016357;-88
2021/08/05 11:41:41;;;;;;;;;;;24.90;64.70;;;;;;5;36013335;41266611;-86
2021/08/05 11:45:02;;;;;;;;;;;24.70;70.00;;;;;;5;36015524;41270121;-87
2021/08/05 11:48:33;;;;;;;;;;;27.60;64.70;;;;;;5;36014960;41266671;-88
2021/08/05 11:51:50;;;;;;;;;;;31.30;52.10;;;;;;5;36014777;41267134;-89
2021/08/05 11:55:11;;;;;;;;;;;34.10;51.80;;;;;;5;36013279;41267125;-89
2021/08/05 11:58:40;;;;;;;;;;;35.60;45.80;;;;;;5;36012997;41266228;-89
2021/08/05 12:02:04;;;;;;;;;;;34.00;47.30;;;;;;5;36014846;41265851;-88
2021/08/05 12:05:25;;;;;;;;;;;33.40;47.70;;;;;;5;36013283;41266244;-88
2021/08/05 12:08:46;;;;;;;;;;;32.70;48.60;;;;;;5;36013864;41266064;-87
2021/08/05 12:12:07;;;;;;;;;;;31.50;51.30;;;;;;5;36014637;42016535;-86
2021/08/05 12:15:28;;;;;;;;;;;30.60;50.10;;;;;;5;36014409;41266743;-85
2021/08/05 12:18:45;;;;;;;;;;;29.40;52.30;;;;;;5;36013723;41266618;-84
2021/08/05 12:22:05;;;;;;;;;;;29.60;54.90;;;;;;5;36015032;41265633;-85
2021/08/05 12:25:39;;;;;;;;;;;29.20;55.80;;;;;;5;36013628;41267118;-83
2021/08/05 12:28:53;;;;;;;;;;;28.60;57.50;;;;;;5;36015742;41266221;-88
2021/08/05 12:32:10;;;;;;;;;;;28.30;56.00;;;;;;5;36013068;41266583;-85
2021/08/05 12:35:30;;;;;;;;;;;27.90;57.80;;;;;;5;36014390;41266343;-84
2021/08/05 12:38:50;;;;;;;;;;;26.80;58.40;;;;;;5;36014384;41265632;-84
2021/08/05 12:42:06;;;;;;;;;;;26.80;60.60;;;;;;5;36013997;41266055;-85
2021/08/05 12:45:25;;;;;;;;;;;27.90;59.10;;;;;;5;36014884;42016134;-85
2021/08/05 12:48:48;;;;;;;;;;;29.70;55.20;;;;;;5;36014541;41265887;-85
2021/08/05 12:52:09;;;;;;;;;;;31.00;50.60;;;;;;5;36013891;41265728;-85
2021/08/05 12:55:23;;;;;;;;;;;32.50;48.20;;;;;;5;36014182;41265544;-85
2021/08/05 12:58:40;;;;;;;;;;;34.40;46.20;;;;;;5;36013809;41266451;-85
2021/08/05 13:02:06;;;;;;;;;;;34.30;45.80;;;;;;5;36014666;41266014;-85
2021/08/05 13:05:26;;;;;;;;;;;33.80;48.40;;;;;;5;36013785;41267236;-85
2021/08/05 13:08:40;;;;;;;;;;;33.00;47.90;;;;;;5;36014057;41266374;-85
2021/08/05 13:11:59;;;;;;;;;;;32.00;47.30;;;;;;5;36014783;41265555;-86
2021/08/05 13:15:28;;;;;;;;;;;31.50;50.70;;;;;;5;36013532;41266458;-85
2021/08/05 13:19:08;;;;;;;;;;;32.00;48.60;;;;;;5;36013886;42016729;-84
2021/08/05 13:22:33;;;;;;;;;;;32.60;46.90;;;;;;5;36014439;41265298;-85
2021/08/05 13:25:50;;;;;;;;;;;32.90;48.10;;;;;;5;36013975;41265936;-84
2021/08/05 13:29:29;;;;;;;;;;;34.30;44.80;;;;;;5;36013382;41266342;-85
2021/08/05 13:32:50;;;;;;;;;;;35.40;43.40;;;;;;5;36014793;41266744;-85
2021/08/05 13:36:04;;;;;;;;;;;33.00;46.60;;;;;;5;36014210;41266117;-87
2021/08/05 13:39:40;;;;;;;;;;;32.50;47.90;;;;;;5;36015578;41266234;-86
2021/08/05 13:43:02;;;;;;;;;;;32.70;47.10;;;;;;5;36014797;41267264;-86
2021/08/05 13:46:27;;;;;;;;;;;33.80;47.20;;;;;;5;36014577;41266578;-86
2021/08/05 13:49:42;;;;;;;;;;;33.40;47.10;;;;;;5;36015038;41265958;-86
2021/08/05 13:53:02;;;;;;;;;;;33.10;47.00;;;;;;5;36013464;42016410;-86
2021/08/05 13:56:21;;;;;;;;;;;33.70;47.10;;;;;;5;36013740;41266698;-86
2021/08/05 13:59:41;;;;;;;;;;;34.20;46.70;;;;;;5;36014386;41265298;-86
2021/08/05 14:02:55;;;;;;;;;;;33.40;46.10;;;;;;5;36014287;41266211;-86
2021/08/05 14:06:12;;;;;;;;;;;32.50;47.80;;;;;;5;36015131;41266665;-86
2021/08/05 14:09:31;;;;;;;;;;;31.00;51.20;;;;;;5;36013394;41265872;-86
2021/08/05 14:12:51;;;;;;;;;;;30.30;50.80;;;;;;5;36014139;41265648;-86
2021/08/05 14:16:05;;;;;;;;;;;29.40;51.30;;;;;;5;36014061;41266289;-85
2021/08/05 14:19:22;;;;;;;;;;;28.60;54.10;;;;;;5;36012970;41266699;-86
2021/08/05 14:22:42;;;;;;;;;;;27.90;56.00;;;;;;5;36014286;41266714;-85
2021/08/05 14:26:03;;;;;;;;;;;27.10;58.50;;;;;;5;36013130;42016814;-85
2021/08/05 14:29:17;;;;;;;;;;;26.30;62.10;;;;;;5;36013312;41266029;-83
2021/08/05 14:32:34;;;;;;;;;;;25.20;69.90;;;;;;5;36013993;41266605;-83
2021/08/05 14:35:54;;;;;;;;;;;23.90;70.20;;;;;;5;36013962;41266883;-82
2021/08/05 14:39:13;;;;;;;;;;;22.70;73.20;;;;;;5;36014285;41266631;-83
2021/08/05 14:42:27;;;;;;;;;;;22.00;73.70;;;;;;5;36014786;41265824;-82
2021/08/05 14:45:44;;;;;;;;;;;21.70;75.50;;;;;;5;36013994;41266674;-83
2021/08/05 14:49:04;;;;;;;;;;;21.40;77.50;;;;;;5;36014978;41265399;-83
2021/08/05 14:52:23;;;;;;;;;;;21.20;77.40;;;;;;5;36013369;41265496;-84
2021/08/05 14:55:37;;;;;;;;;;;21.00;78.60;;;;;;5;36013837;41265523;-83
2021/08/05 14:58:56;;;;;;;;;;;20.90;80.10;;;;;;5;36013795;42016748;-84
2021/08/05 15:02:15;;;;;;;;;;;20.70;80.10;;;;;;5;36013074;41265624;-84
2021/08/05 15:05:35;;;;;;;;;;;20.60;80.70;;;;;;5;36015562;41271523;-85
2021/08/05 15:08:49;;;;;;;;;;;20.60;81.70;;;;;;5;36015143;41266350;-84
2021/08/05 15:12:06;;;;;;;;;;;20.60;82.10;;;;;;5;36014751;41265468;-84
2021/08/05 15:15:26;;;;;;;;;;;20.60;84.30;;;;;;5;36014316;41267229;-84
2021/08/05 15:18:45;;;;;;;;;;;20.60;84.80;;;;;;5;36012999;41266740;-84
2021/08/05 15:21:59;;;;;;;;;;;20.40;85.80;;;;;;5;36013885;41265376;-84
2021/08/05 15:25:18;;;;;;;;;;;20.00;88.90;;;;;;5;36013566;41266301;-84
2021/08/05 15:28:37;;;;;;;;;;;19.80;90.30;;;;;;5;36013480;41267508;-83
2021/08/05 15:31:58;;;;;;;;;;;19.60;90.50;;;;;;5;36012987;42016942;-83
2021/08/05 15:35:13;;;;;;;;;;;19.50;91.50;;;;;;5;36013615;41266551;-83
2021/08/05 15:38:30;;;;;;;;;;;19.50;91.60;;;;;;5;36014542;41265356;-83
2021/08/05 15:41:49;;;;;;;;;;;19.60;93.30;;;;;;5;36014099;41266374;-83
2021/08/05 15:45:09;;;;;;;;;;;19.70;93.00;;;;;;5;36013709;41265960;-83
2021/08/05 15:48:23;;;;;;;;;;;19.80;92.70;;;;;;5;36013817;41266586;-83
2021/08/05 15:51:40;;;;;;;;;;;19.90;92.30;;;;;;5;36013629;41266316;-84
2021/08/05 15:54:59;;;;;;;;;;;19.90;93.10;;;;;;5;36014948;41267249;-81
2021/08/05 15:58:19;;;;;;;;;;;19.50;95.20;;;;;;5;36013473;41267094;-82
2021/08/05 16:01:33;;;;;;;;;;;19.20;96.90;;;;;;5;36013087;41265840;-86
2021/08/05 16:04:52;;;;;;;;;;;19.10;97.80;;;;;;5;36012407;42016568;-87
2021/08/05 16:08:11;;;;;;;;;;;19.00;97.70;;;;;;5;36013496;41265860;-86
2021/08/05 16:11:31;;;;;;;;;;;18.90;99.30;;;;;;5;36014654;41265595;-80
2021/08/05 16:14:45;;;;;;;;;;;19.00;99.90;;;;;;5;36014007;41265158;-85
2021/08/05 16:18:02;;;;;;;;;;;19.20;99.90;;;;;;5;36012983;41264401;-86
2021/08/05 16:21:23;;;;;;;;;;;19.30;99.90;;;;;;5;36012853;41267852;-89
2021/08/05 16:24:43;;;;;;;;;;;19.20;99.40;;;;;;5;36013248;41264939;-86
2021/08/05 16:27:57;;;;;;;;;;;19.20;99.70;;;;;;5;36013714;41266309;-92
2021/08/05 16:31:14;;;;;;;;;;;19.10;99.90;;;;;;5;36013791;41266609;-86
2021/08/05 16:34:34;;;;;;;;;;;19.10;99.90;;;;;;5;36013963;41266355;-86
2021/08/05 16:37:57;;;;;;;;;;;19.10;99.90;;;;;;5;36013967;42018633;-87
2021/08/05 16:41:12;;;;;;;;;;;18.90;99.90;;;;;;5;36014087;41264812;-87
2021/08/05 16:44:29;;;;;;;;;;;18.90;99.90;;;;;;5;36013709;41265461;-85
2021/08/05 16:47:48;;;;;;;;;;;18.90;99.90;;;;;;5;36013344;41267285;-88
2021/08/05 16:51:07;;;;;;;;;;;18.90;99.90;;;;;;5;36013497;41265822;-87
2021/08/05 16:58:16;;;;;;;;;;;18.90;99.90;;;;;;5;36013701;41268228;-86
2021/08/05 17:01:36;;;;;;;;;;;18.90;99.90;;;;;;5;36015392;41266088;-86
2021/08/05 17:04:55;;;;;;;;;;;18.90;99.90;;;;;;5;36013168;41266066;-86
2021/08/05 17:08:10;;;;;;;;;;;18.90;99.90;;;;;;5;36013738;41265141;-86
2021/08/05 17:11:28;;;;;;;;;;;18.90;99.90;;;;;;5;36013912;42017195;-87
2021/08/05 17:14:48;;;;;;;;;;;18.80;99.60;;;;;;5;36014759;41266294;-86
2021/08/05 17:18:08;;;;;;;;;;;18.80;99.90;;;;;;5;36014402;41266303;-86
2021/08/05 17:21:22;;;;;;;;;;;18.90;98.70;;;;;;5;36013309;41266541;-86
2021/08/05 17:24:39;;;;;;;;;;;18.90;98.00;;;;;;5;36013476;41266467;-86
2021/08/05 17:27:59;;;;;;;;;;;18.80;96.70;;;;;;5;36013320;41266173;-86
2021/08/05 17:31:18;;;;;;;;;;;18.80;99.30;;;;;;5;36012734;41266962;-86
2021/08/05 17:34:32;;;;;;;;;;;18.70;95.50;;;;;;5;36015867;41268831;-84
2021/08/05 17:37:50;;;;;;;;;;;18.70;97.00;;;;;;5;36013566;41268748;-86
2021/08/05 17:41:09;;;;;;;;;;;18.70;98.00;;;;;;5;36014657;41267277;-86
2021/08/05 17:44:30;;;;;;;;;;;18.70;95.00;;;;;;5;36013559;42016925;-86
2021/08/05 17:47:44;;;;;;;;;;;18.70;95.40;;;;;;5;36013960;41267191;-87
2021/08/05 17:51:01;;;;;;;;;;;18.70;95.00;;;;;;5;36013296;41266732;-86
2021/08/05 17:54:21;;;;;;;;;;;18.70;94.90;;;;;;5;36015366;41267022;-86
2021/08/05 17:57:40;;;;;;;;;;;18.70;94.70;;;;;;5;36013514;41267361;-86
2021/08/05 18:00:54;;;;;;;;;;;18.60;94.40;;;;;;5;36015709;41267318;-87
2021/08/05 18:04:12;;;;;;;;;;;18.40;94.00;;;;;;5;36013160;41267503;-86
2021/08/05 18:07:31;;;;;;;;;;;18.30;94.60;;;;;;5;36014816;41267121;-86
2021/08/05 18:10:50;;;;;;;;;;;18.20;94.40;;;;;;5;36015292;41265861;-86
2021/08/05 18:14:06;;;;;;;;;;;18.00;94.70;;;;;;5;36013614;41266450;-87
2021/08/05 18:17:25;;;;;;;;;;;18.10;95.70;;;;;;5;36013612;42017087;-85
2021/08/05 18:20:46;;;;;;;;;;;17.80;96.40;;;;;;5;36014145;41267158;-86
2021/08/05 18:24:05;;;;;;;;;;;17.70;96.10;;;;;;5;36013543;41268440;-86
2021/08/05 18:27:19;;;;;;;;;;;17.60;96.70;;;;;;5;36013639;41267054;-86
2021/08/05 18:30:36;;;;;;;;;;;17.50;97.20;;;;;;5;36015519;41266621;-87
2021/08/05 18:33:56;;;;;;;;;;;17.40;97.10;;;;;;5;36015187;41266098;-86
2021/08/05 18:37:15;;;;;;;;;;;17.40;96.90;;;;;;5;36014534;41266333;-86
2021/08/05 18:40:30;;;;;;;;;;;17.40;96.90;;;;;;5;36014029;41267221;-86
2021/08/05 18:43:47;;;;;;;;;;;17.30;96.40;;;;;;5;36013410;41266987;-87
2021/08/05 18:47:06;;;;;;;;;;;17.30;95.60;;;;;;5;36014462;41267605;-86
2021/08/05 18:50:27;;;;;;;;;;;17.30;95.80;;;;;;5;36015302;42016420;-87
2021/08/05 18:53:43;;;;;;;;;;;17.40;95.10;;;;;;5;36014657;41266280;-87
2021/08/05 18:57:01;;;;;;;;;;;17.40;94.00;;;;;;5;36014959;41266232;-86
2021/08/05 19:00:20;;;;;;;;;;;17.50;94.00;;;;;;5;36013603;41266905;-86
2021/08/05 19:03:40;;;;;;;;;;;17.50;94.10;;;;;;5;36014113;41266920;-88
2021/08/05 19:06:54;;;;;;;;;;;17.40;94.90;;;;;;5;36015401;41266321;-88
2021/08/05 19:10:12;;;;;;;;;;;17.40;95.50;;;;;;5;36015349;41265914;-87
2021/08/05 19:13:31;;;;;;;;;;;17.30;95.40;;;;;;5;36014173;41266757;-88
2021/08/05 19:16:51;;;;;;;;;;;17.20;95.90;;;;;;5;36013655;41266298;-87
2021/08/05 19:20:07;;;;;;;;;;;17.20;96.10;;;;;;5;36013346;41266288;-87
2021/08/05 19:23:26;;;;;;;;;;;17.10;96.30;;;;;;5;36013432;42016000;-87
2021/08/05 19:26:46;;;;;;;;;;;17.10;96.30;;;;;;5;36013035;41267542;-87
2021/08/05 19:30:05;;;;;;;;;;;17.10;96.40;;;;;;5;36013412;41267059;-87
2021/08/05 19:33:20;;;;;;;;;;;17.00;96.50;;;;;;5;36016072;41266172;-87
2021/08/05 19:36:37;;;;;;;;;;;17.00;96.70;;;;;;5;36014537;41265828;-87
2021/08/05 19:39:57;;;;;;;;;;;16.90;97.20;;;;;;5;36014214;41268485;-87
2021/08/05 19:43:16;;;;;;;;;;;16.80;97.50;;;;;;5;36013575;41267327;-87
2021/08/05 19:46:30;;;;;;;;;;;16.70;97.90;;;;;;5;36014517;41265391;-86
2021/08/05 19:49:47;;;;;;;;;;;16.70;98.40;;;;;;5;36014025;41265762;-87
2021/08/05 19:53:07;;;;;;;;;;;16.70;98.40;;;;;;5;36013626;41267246;-87
2021/08/05 19:56:28;;;;;;;;;;;16.60;98.00;;;;;;5;36014389;42016411;-87
2021/08/05 19:59:43;;;;;;;;;;;16.60;98.00;;;;;;5;36013903;41264983;-87
2021/08/05 20:03:00;;;;;;;;;;;16.60;97.40;;;;;;5;36013179;41265676;-87
2021/08/05 20:06:19;;;;;;;;;;;16.70;96.90;;;;;;5;36013454;41265997;-88
2021/08/05 20:09:39;;;;;;;;;;;16.80;96.00;;;;;;5;36013847;41265888;-86
2021/08/05 20:12:53;;;;;;;;;;;16.90;95.80;;;;;;5;36015626;41266481;-86
2021/08/05 20:16:10;;;;;;;;;;;16.90;95.60;;;;;;5;36014221;41267209;-87
2021/08/05 20:19:30;;;;;;;;;;;17.00;95.90;;;;;;5;36013658;41266482;-88
2021/08/05 20:22:49;;;;;;;;;;;16.90;96.00;;;;;;5;36014371;41265498;-88
2021/08/05 20:26:03;;;;;;;;;;;16.90;96.20;;;;;;5;36013619;41266367;-87
2021/08/05 20:29:22;;;;;;;;;;;16.90;96.30;;;;;;5;36015298;42015357;-89
2021/08/05 20:32:41;;;;;;;;;;;17.00;96.30;;;;;;5;36014333;41267155;-89
2021/08/05 20:36:01;;;;;;;;;;;17.10;95.50;;;;;;5;36016165;41265980;-88
2021/08/05 20:39:15;;;;;;;;;;;17.20;95.30;;;;;;5;36013980;41266508;-88
2021/08/05 20:42:32;;;;;;;;;;;17.20;95.60;;;;;;5;36014524;41266434;-88
2021/08/05 20:45:51;;;;;;;;;;;17.30;95.20;;;;;;5;36014103;41266532;-89
2021/08/05 20:49:11;;;;;;;;;;;17.30;94.90;;;;;;5;36015493;41267081;-89
2021/08/05 20:52:25;;;;;;;;;;;17.40;94.90;;;;;;5;36015732;41265741;-89
2021/08/05 20:55:42;;;;;;;;;;;17.40;94.70;;;;;;5;36014789;41266407;-89
2021/08/05 20:59:01;;;;;;;;;;;17.50;93.80;;;;;;5;36013813;41267005;-88
2021/08/05 21:02:22;;;;;;;;;;;17.60;93.40;;;;;;5;36015470;42018903;-86
2021/08/05 21:05:36;;;;;;;;;;;17.70;93.70;;;;;;5;36013794;41267033;-87
2021/08/05 21:08:54;;;;;;;;;;;17.70;96.40;;;;;;5;36013097;41267325;-88
2021/08/05 21:12:13;;;;;;;;;;;17.70;97.60;;;;;;5;36018932;41267667;-87
2021/08/05 21:15:32;;;;;;;;;;;17.70;98.20;;;;;;5;36014714;41265829;-87
2021/08/05 21:18:47;;;;;;;;;;;17.70;99.30;;;;;;5;36014832;41265592;-87
2021/08/05 21:22:05;;;;;;;;;;;17.70;99.60;;;;;;5;36014566;41266337;-87
2021/08/05 21:25:24;;;;;;;;;;;17.60;99.90;;;;;;5;36014751;41268602;-87
2021/08/05 21:28:44;;;;;;;;;;;17.40;99.90;;;;;;5;36014248;41267103;-88